Cornwell, South Carolina
Current Conditions -  °F | °C
As of 12:35 PM on Sunday 23 Nov 2014 (Local Time) from KDCM Reporting Station
Moderate Rain Moderate Rain  
Wind Chill: 52°   Ceiling: 200
Heat Index: 52°   Visibility: 2.5mi
Dew Point: 50°   Wind: 7mph
Humidity: 94%   Direction: 60°ENE
Pressure: 30.06"   Gusts: NA
Location:  34.5772°N, 81.1021°W
Report Text: KDCM 231735Z AUTO 06006KT 2 1/2SM RA OVC002 11/10 A3006 RMK AO2 P0004
Loading
Personal Weather Stations






























Interactive Weather Map New forecast layout! Learn more

10-Day Weather Forecast

Advertisements
Track Severe Weather on mobile